createdAt,value
2019-03-22T00:02:09.123Z,9.10
2019-03-22T00:04:37.113Z,9.10
2019-03-22T00:07:05.347Z,9.10
2019-03-22T00:09:33.379Z,9.00
2019-03-22T00:12:04.113Z,9.00
2019-03-22T00:14:31.247Z,9.00
2019-03-22T00:16:59.628Z,9.10
2019-03-22T00:19:27.854Z,9.10
2019-03-22T00:21:56.048Z,9.10
2019-03-22T00:24:24.111Z,9.10
2019-03-22T00:26:52.301Z,9.10
2019-03-22T00:29:20.176Z,9.10
2019-03-22T00:31:48.409Z,9.10
2019-03-22T00:34:16.429Z,9.10
2019-03-22T00:36:44.664Z,9.10
2019-03-22T00:39:12.982Z,9.10
2019-03-22T00:41:41.127Z,9.10
2019-03-22T00:44:09.225Z,9.10
2019-03-22T00:46:37.489Z,9.20
2019-03-22T00:49:05.496Z,9.20
2019-03-22T00:51:33.802Z,9.30
2019-03-22T00:54:01.803Z,9.30
2019-03-22T00:56:30.156Z,9.30
2019-03-22T00:59:03.126Z,9.30
2019-03-22T01:01:31.408Z,9.30
2019-03-22T01:03:59.821Z,9.30
2019-03-22T01:06:27.886Z,9.30
2019-03-22T01:08:55.896Z,9.20
2019-03-22T01:11:23.936Z,9.20
2019-03-22T01:13:52.541Z,9.20
2019-03-22T01:16:21.930Z,9.20
2019-03-22T01:18:50.581Z,9.20
2019-03-22T01:21:18.824Z,9.20
2019-03-22T01:23:46.758Z,9.20
2019-03-22T01:26:16.998Z,9.20
2019-03-22T01:28:45.207Z,9.20
2019-03-22T01:31:13.130Z,9.20
2019-03-22T01:33:41.308Z,9.20
2019-03-22T01:36:09.761Z,9.20
2019-03-22T01:38:38.588Z,9.20
2019-03-22T01:41:06.664Z,9.20
2019-03-22T01:43:34.747Z,9.30
2019-03-22T01:46:02.545Z,9.30
2019-03-22T01:48:30.509Z,9.30
2019-03-22T01:50:58.638Z,9.30
2019-03-22T01:53:26.866Z,9.30
2019-03-22T01:55:55.021Z,9.30
2019-03-22T01:58:23.158Z,9.30
2019-03-22T02:00:51.326Z,9.30
2019-03-22T02:03:19.438Z,9.30
2019-03-22T02:05:47.498Z,9.30
2019-03-22T02:08:18.513Z,9.30
2019-03-22T02:10:46.903Z,9.30
2019-03-22T02:13:15.099Z,9.30
2019-03-22T02:15:45.475Z,9.30
2019-03-22T02:18:16.422Z,9.30
2019-03-22T02:20:44.807Z,9.30
2019-03-22T02:23:12.725Z,9.30
2019-03-22T02:25:53.209Z,9.30
2019-03-22T02:28:21.207Z,9.40
2019-03-22T02:30:49.530Z,9.40
2019-03-22T02:33:17.888Z,9.30
2019-03-22T02:35:46.119Z,9.30
2019-03-22T02:38:17.005Z,9.40
2019-03-22T02:40:45.108Z,9.40
2019-03-22T02:43:13.425Z,9.50
2019-03-22T02:45:41.659Z,9.40
2019-03-22T02:48:10.618Z,9.50
2019-03-22T02:50:39.263Z,9.40
2019-03-22T02:53:07.416Z,9.40
2019-03-22T02:55:35.575Z,9.40
2019-03-22T02:58:19.334Z,9.40
2019-03-22T03:00:34.113Z,9.40
2019-03-22T03:03:02.583Z,9.40
2019-03-22T03:05:30.630Z,9.40
2019-03-22T03:07:58.520Z,9.40
2019-03-22T03:10:26.558Z,9.40
2019-03-22T03:12:54.618Z,9.40
2019-03-22T03:15:22.687Z,9.40
2019-03-22T03:17:50.744Z,9.40
2019-03-22T03:20:19.285Z,9.40
2019-03-22T03:22:47.456Z,9.40
2019-03-22T03:25:16.526Z,9.40
2019-03-22T03:27:45.107Z,9.40
2019-03-22T03:30:15.408Z,9.50
2019-03-22T03:32:46.231Z,9.50
2019-03-22T03:35:15.201Z,9.60
2019-03-22T03:37:43.846Z,9.60
2019-03-22T03:40:12.391Z,9.50
2019-03-22T03:42:40.514Z,9.50
2019-03-22T03:45:35.900Z,9.50
2019-03-22T03:48:06.574Z,9.50
2019-03-22T03:50:34.537Z,9.50
2019-03-22T03:53:08.145Z,9.50
2019-03-22T03:55:36.525Z,9.40
2019-03-22T03:58:04.799Z,9.50
2019-03-22T04:00:33.115Z,9.40
2019-03-22T04:03:01.034Z,9.40
2019-03-22T04:05:29.109Z,9.40
2019-03-22T04:07:57.306Z,9.40
2019-03-22T04:10:25.365Z,9.40
2019-03-22T04:12:53.425Z,9.40
2019-03-22T04:15:21.807Z,9.30
2019-03-22T04:17:50.127Z,9.30
2019-03-22T04:20:18.386Z,9.30
2019-03-22T04:22:46.526Z,9.40
2019-03-22T04:25:14.426Z,9.40
2019-03-22T04:27:42.890Z,9.40
2019-03-22T04:30:10.879Z,9.40
2019-03-22T04:32:41.279Z,9.30
2019-03-22T04:35:09.432Z,9.30
2019-03-22T04:37:38.421Z,9.30
2019-03-22T04:40:18.351Z,9.20
2019-03-22T04:42:46.378Z,9.20
2019-03-22T04:45:14.438Z,9.20
2019-03-22T04:47:46.123Z,9.20
2019-03-22T04:50:16.821Z,9.20
2019-03-22T04:52:45.799Z,9.20
2019-03-22T04:55:16.032Z,9.10
2019-03-22T04:57:47.403Z,9.10
2019-03-22T05:00:18.770Z,9.10
2019-03-22T05:02:47.484Z,9.00
2019-03-22T05:05:16.975Z,9.00
2019-03-22T05:07:45.041Z,9.00
2019-03-22T05:10:15.814Z,8.90
2019-03-22T05:12:45.663Z,8.90
2019-03-22T05:15:16.846Z,8.90
2019-03-22T05:17:45.430Z,8.90
2019-03-22T05:20:16.480Z,8.90
2019-03-22T05:22:45.958Z,8.90
2019-03-22T05:25:14.747Z,8.80
2019-03-22T05:27:44.104Z,8.90
2019-03-22T05:30:43.339Z,8.80
2019-03-22T05:33:11.160Z,8.80
2019-03-22T05:35:39.282Z,8.80
2019-03-22T05:38:07.736Z,8.80
2019-03-22T05:40:37.322Z,8.80
2019-03-22T05:43:05.385Z,8.80
2019-03-22T05:45:33.394Z,8.70
2019-03-22T05:48:01.783Z,8.70
2019-03-22T05:50:29.765Z,8.70
2019-03-22T05:52:57.784Z,8.70
2019-03-22T05:55:25.829Z,8.70
2019-03-22T05:57:54.021Z,8.70
2019-03-22T06:00:22.050Z,8.70
2019-03-22T06:02:50.067Z,8.70
2019-03-22T06:05:18.162Z,8.70
2019-03-22T06:07:46.163Z,8.70
2019-03-22T06:10:14.161Z,8.80
2019-03-22T06:12:44.446Z,8.70
2019-03-22T06:15:12.610Z,8.90
2019-03-22T06:17:51.200Z,8.90
2019-03-22T06:20:10.851Z,8.90
2019-03-22T06:22:38.998Z,8.90
2019-03-22T06:25:07.003Z,8.90
2019-03-22T06:27:34.990Z,8.90
2019-03-22T06:30:03.826Z,8.90
2019-03-22T06:32:31.899Z,8.90
2019-03-22T06:34:59.968Z,8.90
2019-03-22T06:37:28.008Z,8.90
2019-03-22T06:39:56.090Z,8.90
2019-03-22T06:42:24.243Z,8.90
2019-03-22T06:44:52.621Z,8.90
2019-03-22T06:47:20.685Z,8.90
2019-03-22T06:49:48.697Z,8.90
2019-03-22T06:52:17.514Z,8.90
2019-03-22T06:54:45.449Z,8.90
2019-03-22T06:57:13.431Z,8.90
2019-03-22T06:59:44.995Z,8.90
2019-03-22T07:02:12.950Z,9.00
2019-03-22T07:04:44.535Z,9.00
2019-03-22T07:07:12.470Z,9.00
2019-03-22T07:09:42.564Z,9.00
2019-03-22T07:12:10.458Z,9.10
2019-03-22T07:14:38.954Z,9.10
2019-03-22T07:17:06.887Z,9.20
2019-03-22T07:19:34.937Z,9.30
2019-03-22T07:22:02.953Z,9.30
2019-03-22T07:24:30.937Z,9.30
2019-03-22T07:26:59.159Z,9.40
2019-03-22T07:29:27.175Z,9.40
2019-03-22T07:31:56.509Z,9.50
2019-03-22T07:34:24.516Z,9.50
2019-03-22T07:36:52.523Z,9.60
2019-03-22T07:39:20.493Z,9.70
2019-03-22T07:41:48.469Z,9.80
2019-03-22T07:44:16.821Z,9.90
2019-03-22T07:46:44.747Z,10.00
2019-03-22T07:49:12.884Z,10.10
2019-03-22T07:51:41.693Z,10.10
2019-03-22T07:54:11.740Z,10.20
2019-03-22T07:56:39.959Z,10.30
2019-03-22T07:59:09.851Z,10.40
2019-03-22T08:01:38.740Z,10.50
2019-03-22T08:04:06.927Z,10.70
2019-03-22T08:06:34.888Z,10.90
2019-03-22T08:09:06.570Z,11.00
2019-03-22T08:11:34.667Z,11.20
2019-03-22T08:14:02.640Z,11.40
2019-03-22T08:16:30.737Z,11.60
2019-03-22T08:18:59.986Z,11.80
2019-03-22T08:21:28.078Z,11.90
2019-03-22T08:23:56.180Z,12.00
2019-03-22T08:26:24.320Z,12.20
2019-03-22T08:28:52.753Z,12.30
2019-03-22T08:31:20.739Z,12.50
2019-03-22T08:33:48.845Z,12.60
2019-03-22T08:36:18.007Z,12.70
2019-03-22T08:38:45.911Z,12.80
2019-03-22T08:41:14.057Z,12.90
2019-03-22T08:43:42.919Z,13.00
2019-03-22T08:46:11.041Z,13.10
2019-03-22T08:48:39.368Z,13.20
2019-03-22T08:51:07.899Z,13.20
2019-03-22T08:53:38.004Z,13.30
2019-03-22T08:56:06.117Z,13.30
2019-03-22T08:58:34.144Z,13.40
2019-03-22T09:01:02.245Z,13.50
2019-03-22T09:03:30.324Z,13.60
2019-03-22T09:06:17.950Z,13.60
2019-03-22T09:08:47.908Z,13.70
2019-03-22T09:11:18.147Z,13.80
2019-03-22T09:13:46.863Z,13.80
2019-03-22T09:16:14.979Z,13.80
2019-03-22T09:18:46.088Z,13.90
2019-03-22T09:21:14.420Z,13.90
2019-03-22T09:23:44.839Z,14.00
2019-03-22T09:26:12.794Z,14.00
2019-03-22T09:28:43.796Z,14.10
2019-03-22T09:31:12.372Z,14.20
2019-03-22T09:33:43.973Z,14.20
2019-03-22T09:36:12.485Z,14.30
2019-03-22T09:38:41.805Z,14.30
2019-03-22T09:41:09.856Z,14.40
2019-03-22T09:43:40.831Z,14.40
2019-03-22T09:46:08.952Z,14.50
2019-03-22T09:48:39.564Z,14.60
2019-03-22T09:51:07.696Z,14.60
2019-03-22T09:53:35.818Z,14.80
2019-03-22T09:56:06.767Z,14.80
2019-03-22T09:58:34.738Z,14.80
2019-03-22T10:01:02.946Z,14.80
2019-03-22T10:03:32.134Z,14.80
2019-03-22T10:06:00.245Z,14.80
2019-03-22T10:08:28.505Z,14.80
2019-03-22T10:10:56.501Z,14.80
2019-03-22T10:13:24.671Z,14.80
2019-03-22T10:15:52.872Z,14.90
2019-03-22T10:18:20.941Z,14.90
2019-03-22T10:20:49.166Z,15.00
2019-03-22T10:23:17.096Z,15.00
2019-03-22T10:25:45.126Z,15.00
2019-03-22T10:28:13.099Z,15.10
2019-03-22T10:30:44.631Z,15.20
2019-03-22T10:33:22.059Z,15.30
2019-03-22T10:35:43.194Z,15.30
2019-03-22T10:38:16.380Z,15.30
2019-03-22T10:40:41.878Z,15.30
2019-03-22T10:43:09.900Z,15.30
2019-03-22T10:45:40.830Z,15.30
2019-03-22T10:48:08.935Z,15.40
2019-03-22T10:50:37.357Z,15.40
2019-03-22T10:53:05.634Z,15.40
2019-03-22T10:55:35.528Z,15.50
2019-03-22T10:58:03.609Z,15.50
2019-03-22T11:00:31.690Z,15.60
2019-03-22T11:02:59.709Z,15.60
2019-03-22T11:05:27.782Z,15.70
2019-03-22T11:07:55.777Z,15.70
2019-03-22T11:10:23.818Z,15.80
2019-03-22T11:12:51.871Z,15.90
2019-03-22T11:15:19.957Z,16.00
2019-03-22T11:17:48.025Z,16.00
2019-03-22T11:20:17.323Z,16.00
2019-03-22T11:22:45.363Z,16.00
2019-03-22T11:25:13.518Z,16.10
2019-03-22T11:27:44.117Z,16.10
2019-03-22T11:30:14.555Z,16.20
2019-03-22T11:32:45.695Z,16.20
2019-03-22T11:35:14.882Z,16.30
2019-03-22T11:37:43.048Z,16.30
2019-03-22T11:40:12.994Z,16.40
2019-03-22T11:42:41.735Z,16.40
2019-03-22T11:45:13.236Z,16.50
2019-03-22T11:47:43.886Z,16.60
2019-03-22T11:50:11.954Z,16.60
2019-03-22T11:52:39.934Z,16.70
2019-03-22T11:55:10.987Z,16.70
2019-03-22T11:57:39.123Z,16.70
2019-03-22T12:00:11.292Z,16.80
2019-03-22T12:02:39.294Z,16.80
2019-03-22T12:05:09.030Z,16.80
2019-03-22T12:07:38.803Z,16.90
2019-03-22T12:10:08.147Z,16.90
2019-03-22T12:12:36.586Z,17.00
2019-03-22T12:15:05.425Z,17.00
2019-03-22T12:17:33.468Z,17.10
2019-03-22T12:20:01.468Z,17.20
2019-03-22T12:22:29.474Z,17.30
2019-03-22T12:24:57.503Z,17.40
2019-03-22T12:27:25.589Z,17.40
2019-03-22T12:29:53.677Z,17.50
2019-03-22T12:32:21.830Z,17.50
2019-03-22T12:34:50.766Z,17.60
2019-03-22T12:37:18.927Z,17.60
2019-03-22T12:39:46.911Z,17.60
2019-03-22T12:42:14.930Z,17.70
2019-03-22T12:44:46.058Z,17.70
2019-03-22T12:47:15.137Z,17.80
2019-03-22T12:49:42.986Z,17.80
2019-03-22T12:52:11.025Z,17.90
2019-03-22T12:54:39.130Z,17.90
2019-03-22T12:57:07.118Z,18.00
2019-03-22T12:59:40.900Z,18.10
2019-03-22T13:02:08.984Z,18.10
2019-03-22T13:04:38.811Z,18.10
2019-03-22T13:07:06.881Z,18.10
2019-03-22T13:09:34.889Z,18.20
2019-03-22T13:12:02.877Z,18.20
2019-03-22T13:14:30.981Z,18.30
2019-03-22T13:16:59.987Z,18.30
2019-03-22T13:19:28.005Z,18.40
2019-03-22T13:21:55.922Z,18.40
2019-03-22T13:24:23.862Z,18.50
2019-03-22T13:26:51.946Z,18.50
2019-03-22T13:29:19.955Z,18.50
2019-03-22T13:31:48.098Z,18.60
2019-03-22T13:34:16.056Z,18.60
2019-03-22T13:36:44.078Z,18.60
2019-03-22T13:39:12.156Z,18.70
2019-03-22T13:41:42.993Z,18.70
2019-03-22T13:44:10.978Z,18.80
2019-03-22T13:46:40.442Z,18.90
2019-03-22T13:49:08.750Z,18.90
2019-03-22T13:51:37.338Z,18.90
2019-03-22T13:54:05.310Z,19.00
2019-03-22T13:56:33.438Z,19.00
2019-03-22T13:59:01.525Z,19.10
2019-03-22T14:01:29.618Z,19.20
2019-03-22T14:03:57.725Z,19.10
2019-03-22T14:06:25.615Z,19.10
2019-03-22T14:08:53.642Z,19.10
2019-03-22T14:11:21.550Z,19.10
2019-03-22T14:13:49.662Z,19.20
2019-03-22T14:16:20.885Z,19.20
2019-03-22T14:18:48.958Z,19.20
2019-03-22T14:21:16.806Z,19.30
2019-03-22T14:23:44.807Z,19.30
2019-03-22T14:26:12.724Z,19.40
2019-03-22T14:28:41.186Z,19.40
2019-03-22T14:31:09.201Z,19.60
2019-03-22T14:33:37.530Z,19.80
2019-03-22T14:36:05.538Z,19.90
2019-03-22T14:38:33.532Z,20.20
2019-03-22T14:41:01.619Z,20.40
2019-03-22T14:43:29.581Z,20.20
2019-03-22T14:45:57.771Z,20.10
2019-03-22T14:48:25.806Z,19.90
2019-03-22T14:50:54.015Z,19.90
2019-03-22T14:53:22.077Z,19.80
2019-03-22T14:55:50.139Z,19.80
2019-03-22T14:58:20.964Z,19.70
2019-03-22T15:00:49.753Z,19.80
2019-03-22T15:03:24.258Z,19.80
2019-03-22T15:05:53.736Z,19.80
2019-03-22T15:08:22.406Z,19.80
2019-03-22T15:10:50.609Z,19.70
2019-03-22T15:13:19.907Z,19.70
2019-03-22T15:16:13.207Z,19.70
2019-03-22T15:18:56.017Z,19.70
2019-03-22T15:21:42.252Z,19.70
2019-03-22T15:24:35.518Z,19.70
2019-03-22T15:27:24.134Z,19.60
2019-03-22T15:30:04.048Z,19.60
2019-03-22T15:32:51.624Z,19.60
2019-03-22T15:35:36.712Z,19.50
2019-03-22T15:38:23.057Z,19.50
2019-03-22T15:40:51.160Z,19.50
2019-03-22T15:43:19.188Z,19.50
2019-03-22T15:45:47.212Z,19.50
2019-03-22T15:48:15.162Z,19.50
2019-03-22T15:50:42.982Z,19.40
2019-03-22T15:53:10.908Z,19.40
2019-03-22T15:55:38.990Z,19.40
2019-03-22T15:58:06.921Z,19.40
2019-03-22T16:00:34.989Z,19.40
2019-03-22T16:03:02.951Z,19.40
2019-03-22T16:05:30.918Z,19.40
2019-03-22T16:07:59.053Z,19.40
2019-03-22T16:10:26.943Z,19.30
2019-03-22T16:12:57.582Z,19.30
2019-03-22T16:15:25.424Z,19.30
2019-03-22T16:17:53.516Z,19.20
2019-03-22T16:20:21.514Z,19.20
2019-03-22T16:22:49.627Z,19.20
2019-03-22T16:25:17.570Z,19.10
2019-03-22T16:27:45.862Z,19.10
2019-03-22T16:30:14.074Z,19.00
2019-03-22T16:32:43.921Z,19.00
2019-03-22T16:35:12.235Z,19.00
2019-03-22T16:37:40.284Z,18.90
2019-03-22T16:40:10.829Z,18.90
2019-03-22T16:42:39.947Z,18.90
2019-03-22T16:45:08.668Z,18.80
2019-03-22T16:47:37.679Z,18.70
2019-03-22T16:50:21.094Z,18.70
2019-03-22T16:52:49.434Z,18.60
2019-03-22T16:55:17.351Z,18.50
2019-03-22T16:57:45.362Z,18.50
2019-03-22T17:00:13.759Z,18.40
2019-03-22T17:02:44.411Z,18.30
2019-03-22T17:05:12.722Z,18.30
2019-03-22T17:07:41.346Z,18.20
2019-03-22T17:10:09.374Z,18.20
2019-03-22T17:12:39.873Z,18.10
2019-03-22T17:15:08.535Z,18.00
2019-03-22T17:17:56.452Z,17.90
2019-03-22T17:20:24.520Z,17.80
2019-03-22T17:22:52.565Z,17.80
2019-03-22T17:25:20.430Z,17.70
2019-03-22T17:27:49.819Z,17.60
2019-03-22T17:30:18.749Z,17.60
2019-03-22T17:32:46.736Z,17.50
2019-03-22T17:35:15.122Z,17.40
2019-03-22T17:37:43.213Z,17.30
2019-03-22T17:40:11.507Z,17.20
2019-03-22T17:42:39.454Z,17.10
2019-03-22T17:45:08.134Z,17.00
2019-03-22T17:47:36.718Z,16.90
2019-03-22T17:50:05.477Z,16.80
2019-03-22T17:52:33.344Z,16.70
2019-03-22T17:55:01.424Z,16.60
2019-03-22T17:57:29.650Z,16.50
2019-03-22T17:59:58.789Z,16.50
2019-03-22T18:02:26.787Z,16.40
2019-03-22T18:04:54.762Z,16.40
2019-03-22T18:07:22.687Z,16.30
2019-03-22T18:09:50.682Z,16.20
2019-03-22T18:12:21.866Z,16.10
2019-03-22T18:14:49.842Z,16.00
2019-03-22T18:17:17.762Z,15.80
2019-03-22T18:19:45.607Z,15.70
2019-03-22T18:22:13.557Z,15.70
2019-03-22T18:24:43.983Z,15.60
2019-03-22T18:27:12.010Z,15.50
2019-03-22T18:29:40.737Z,15.40
2019-03-22T18:32:08.833Z,15.40
2019-03-22T18:34:38.575Z,15.30
2019-03-22T18:37:06.832Z,15.20
2019-03-22T18:39:34.746Z,15.10
2019-03-22T18:42:02.612Z,15.00
2019-03-22T18:44:30.476Z,14.90
2019-03-22T18:46:58.478Z,14.80
2019-03-22T18:49:26.458Z,14.70
2019-03-22T18:51:54.462Z,14.70
2019-03-22T18:54:22.335Z,14.60
2019-03-22T18:56:50.367Z,14.50
2019-03-22T18:59:18.317Z,14.50
2019-03-22T19:01:46.595Z,14.40
2019-03-22T19:04:15.065Z,14.30
2019-03-22T19:06:43.118Z,14.30
2019-03-22T19:09:11.089Z,14.30
2019-03-22T19:11:39.127Z,14.30
2019-03-22T19:14:07.084Z,14.10
2019-03-22T19:16:35.104Z,14.10
2019-03-22T19:19:03.206Z,14.00
2019-03-22T19:21:31.417Z,13.90
2019-03-22T19:23:59.498Z,13.80
2019-03-22T19:26:27.766Z,13.70
2019-03-22T19:28:55.843Z,13.70
2019-03-22T19:31:23.673Z,13.60
2019-03-22T19:33:51.707Z,13.50
2019-03-22T19:36:22.241Z,13.50
2019-03-22T19:38:50.215Z,13.50
2019-03-22T19:41:19.243Z,13.50
2019-03-22T19:43:47.331Z,13.40
2019-03-22T19:46:15.320Z,13.30
2019-03-22T19:48:43.420Z,13.20
2019-03-22T19:51:11.386Z,13.10
2019-03-22T19:53:39.355Z,13.10
2019-03-22T19:56:07.674Z,13.00
2019-03-22T19:58:35.701Z,12.90
2019-03-22T20:01:03.874Z,12.90
2019-03-22T20:03:31.946Z,12.80
2019-03-22T20:05:59.981Z,12.80
2019-03-22T20:08:28.011Z,12.70
2019-03-22T20:10:55.838Z,12.60
2019-03-22T20:13:23.742Z,12.60
2019-03-22T20:15:51.698Z,12.60
2019-03-22T20:18:21.058Z,12.60
2019-03-22T20:20:48.943Z,12.60
2019-03-22T20:23:16.945Z,12.50
2019-03-22T20:25:45.022Z,12.40
2019-03-22T20:28:13.031Z,12.30
2019-03-22T20:30:41.320Z,12.30
2019-03-22T20:33:09.392Z,12.20
2019-03-22T20:35:37.483Z,12.10
2019-03-22T20:38:05.669Z,12.10
2019-03-22T20:40:33.602Z,12.00
2019-03-22T20:43:02.825Z,12.00
2019-03-22T20:45:30.839Z,11.90
2019-03-22T20:47:58.855Z,11.90
2019-03-22T20:50:35.428Z,11.80
2019-03-22T20:52:57.189Z,11.80
2019-03-22T20:55:25.172Z,11.90
2019-03-22T20:57:53.006Z,11.80
2019-03-22T21:00:21.318Z,11.80
2019-03-22T21:02:49.200Z,11.70
2019-03-22T21:05:26.411Z,11.60
2019-03-22T21:07:47.120Z,11.60
2019-03-22T21:10:15.039Z,11.50
2019-03-22T21:12:43.102Z,11.40
2019-03-22T21:15:11.242Z,11.40
2019-03-22T21:17:39.137Z,11.40
2019-03-22T21:20:08.765Z,11.30
2019-03-22T21:22:37.086Z,11.30
2019-03-22T21:25:05.337Z,11.20
2019-03-22T21:27:33.349Z,11.20
2019-03-22T21:30:05.598Z,11.10
2019-03-22T21:32:40.889Z,11.10
2019-03-22T21:35:03.914Z,11.10
2019-03-22T21:37:31.952Z,11.10
2019-03-22T21:39:59.981Z,11.00
2019-03-22T21:42:30.129Z,10.90
2019-03-22T21:44:58.022Z,10.90
2019-03-22T21:47:26.111Z,10.90
2019-03-22T21:49:54.169Z,10.90
2019-03-22T21:52:22.843Z,10.80
2019-03-22T21:54:50.683Z,10.80
2019-03-22T21:57:18.713Z,10.70
2019-03-22T21:59:46.633Z,10.70
2019-03-22T22:02:14.658Z,10.70
2019-03-22T22:04:43.126Z,10.60
2019-03-22T22:07:11.215Z,10.60
2019-03-22T22:09:39.407Z,10.60
2019-03-22T22:12:07.557Z,10.50
2019-03-22T22:14:40.903Z,10.60
2019-03-22T22:17:05.658Z,10.50
2019-03-22T22:19:33.825Z,10.50
2019-03-22T22:22:01.798Z,10.40
2019-03-22T22:24:29.701Z,10.40
2019-03-22T22:26:57.975Z,10.30
2019-03-22T22:29:26.031Z,10.30
2019-03-22T22:31:55.174Z,10.20
2019-03-22T22:34:25.982Z,10.20
2019-03-22T22:36:53.979Z,10.20
2019-03-22T22:39:21.978Z,10.10
2019-03-22T22:41:50.131Z,10.10
2019-03-22T22:44:18.190Z,10.00
2019-03-22T22:46:46.163Z,10.00
2019-03-22T22:49:14.093Z,10.00
2019-03-22T22:51:44.751Z,9.90
2019-03-22T22:54:12.803Z,9.90
2019-03-22T22:56:43.309Z,9.90
2019-03-22T22:59:11.260Z,9.90
2019-03-22T23:01:39.414Z,9.80
2019-03-22T23:04:07.338Z,9.80
2019-03-22T23:06:35.237Z,9.70
2019-03-22T23:09:04.687Z,9.70
2019-03-22T23:11:34.631Z,9.70
2019-03-22T23:14:02.544Z,9.60
2019-03-22T23:16:30.566Z,9.60
2019-03-22T23:18:58.539Z,9.60
2019-03-22T23:21:26.438Z,9.50
2019-03-22T23:23:54.222Z,9.50
2019-03-22T23:26:22.909Z,9.50
2019-03-22T23:28:52.127Z,9.50
2019-03-22T23:31:20.211Z,9.40
2019-03-22T23:33:48.334Z,9.40
2019-03-22T23:36:20.400Z,9.40
2019-03-22T23:38:46.305Z,9.50
2019-03-22T23:41:14.403Z,9.40
2019-03-22T23:43:43.142Z,9.40
2019-03-22T23:46:11.413Z,9.40
2019-03-22T23:48:40.905Z,9.30
2019-03-22T23:51:08.771Z,9.30
2019-03-22T23:53:40.990Z,9.30
2019-03-22T23:56:09.047Z,9.30
2019-03-22T23:58:38.226Z,9.30
